TimeEDT,TemperatureF,Dew PointF,Humidity,Sea Level PressureIn,VisibilityMPH,Wind Direction,Wind SpeedMPH,Gust SpeedMPH,PrecipitationIn,Events,Conditions,WindDirDegrees,DateUTC
12:52 AM,55.9,54.0,93,29.91,0.8,WSW,4.6,-,N/A,,Mist,250,2013-10-17 04:52:00
1:00 AM,55.4,53.6,94,29.91,1.0,SW,4.6,-,N/A,,Mist,230,2013-10-17 05:00:00
1:52 AM,55.9,53.1,90,29.91,1.5,West,5.8,-,N/A,,Overcast,270,2013-10-17 05:52:00
2:13 AM,55.4,53.6,94,29.90,0.8,SW,3.5,-,N/A,,Mist,230,2013-10-17 06:13:00
2:52 AM,55.9,54.0,93,29.90,0.5,SW,3.5,-,N/A,Fog,Fog,230,2013-10-17 06:52:00
3:41 AM,55.4,53.6,94,29.89,1.0,WSW,5.8,-,N/A,,Mist,240,2013-10-17 07:41:00
3:52 AM,55.9,54.0,93,29.89,1.8,WSW,4.6,-,N/A,,Overcast,240,2013-10-17 07:52:00
3:59 AM,55.4,53.6,94,29.89,2.5,WSW,3.5,-,N/A,,Overcast,250,2013-10-17 07:59:00
4:11 AM,55.4,53.6,94,29.89,1.5,WSW,4.6,-,N/A,,Overcast,240,2013-10-17 08:11:00
4:35 AM,55.4,53.6,94,29.89,0.8,WSW,4.6,-,N/A,,Mist,250,2013-10-17 08:35:00
4:52 AM,55.9,54.0,93,29.89,0.8,WSW,4.6,-,N/A,,Mist,250,2013-10-17 08:52:00
5:03 AM,55.4,53.6,94,29.89,2.0,WSW,5.8,-,N/A,,Overcast,250,2013-10-17 09:03:00
5:12 AM,55.4,53.6,94,29.89,4.0,WSW,4.6,-,N/A,,Overcast,240,2013-10-17 09:12:00
5:52 AM,55.9,54.0,93,29.89,4.0,Calm,Calm,-,N/A,,Overcast,0,2013-10-17 09:52:00
5:58 AM,55.4,53.6,94,29.89,1.8,Calm,Calm,-,N/A,,Overcast,0,2013-10-17 09:58:00
6:15 AM,55.4,53.6,94,29.89,3.0,SSW,3.5,-,N/A,,Overcast,210,2013-10-17 10:15:00
6:25 AM,55.4,53.6,94,29.89,6.0,SSW,3.5,-,N/A,,Mostly Cloudy,200,2013-10-17 10:25:00
6:41 AM,55.4,53.6,94,29.88,6.0,SW,3.5,-,N/A,,Scattered Clouds,220,2013-10-17 10:41:00
6:52 AM,55.9,54.0,93,29.88,6.0,Calm,Calm,-,N/A,,Partly Cloudy,0,2013-10-17 10:52:00
7:52 AM,57.0,55.0,93,29.88,7.0,South,4.6,-,N/A,,Clear,190,2013-10-17 11:52:00
8:47 AM,60.8,55.4,82,29.88,10.0,SW,10.4,-,N/A,,Scattered Clouds,230,2013-10-17 12:47:00
8:52 AM,60.1,55.9,86,29.89,10.0,SW,10.4,-,N/A,,Mostly Cloudy,230,2013-10-17 12:52:00
9:41 AM,62.6,57.2,82,29.88,10.0,SW,8.1,-,N/A,,Scattered Clouds,220,2013-10-17 13:41:00
9:52 AM,64.0,57.9,80,29.88,10.0,SW,8.1,-,N/A,,Scattered Clouds,220,2013-10-17 13:52:00
10:43 AM,66.2,57.2,73,29.88,10.0,WSW,16.1,19.6,N/A,,Mostly Cloudy,250,2013-10-17 14:43:00
10:52 AM,66.0,57.0,73,29.88,10.0,West,15.0,21.9,N/A,,Mostly Cloudy,260,2013-10-17 14:52:00
11:52 AM,66.0,57.0,73,29.86,10.0,SSW,9.2,-,N/A,,Mostly Cloudy,210,2013-10-17 15:52:00
12:52 PM,68.0,57.9,70,29.84,10.0,WSW,10.4,-,N/A,,Overcast,240,2013-10-17 16:52:00
1:52 PM,68.0,57.9,70,29.82,10.0,SW,8.1,-,N/A,,Overcast,230,2013-10-17 17:52:00
2:52 PM,69.1,57.9,68,29.81,10.0,WSW,6.9,-,N/A,,Overcast,240,2013-10-17 18:52:00
3:52 PM,70.0,57.9,65,29.80,10.0,SW,6.9,-,N/A,,Mostly Cloudy,230,2013-10-17 19:52:00
4:05 PM,69.8,57.2,64,29.79,10.0,WSW,6.9,-,N/A,,Scattered Clouds,240,2013-10-17 20:05:00
4:52 PM,69.1,57.0,65,29.79,10.0,SW,9.2,-,N/A,,Clear,230,2013-10-17 20:52:00
5:52 PM,66.0,57.9,75,29.78,10.0,SSW,4.6,-,N/A,,Clear,210,2013-10-17 21:52:00
6:52 PM,63.0,57.9,84,29.79,10.0,South,3.5,-,N/A,,Clear,170,2013-10-17 22:52:00
7:52 PM,61.0,57.9,90,29.79,9.0,South,3.5,-,N/A,,Clear,190,2013-10-17 23:52:00
8:12 PM,60.8,57.2,88,29.80,8.0,SSW,6.9,-,N/A,,Scattered Clouds,210,2013-10-18 00:12:00
8:20 PM,60.8,57.2,88,29.80,7.0,SSW,4.6,-,N/A,,Mostly Cloudy,200,2013-10-18 00:20:00
8:33 PM,60.8,57.2,88,29.80,7.0,SSW,5.8,-,N/A,,Overcast,210,2013-10-18 00:33:00
8:52 PM,61.0,57.9,90,29.79,7.0,SSW,5.8,-,N/A,,Overcast,200,2013-10-18 00:52:00
9:52 PM,62.1,57.9,86,29.78,7.0,SSW,4.6,-,N/A,,Overcast,200,2013-10-18 01:52:00
10:52 PM,61.0,57.9,90,29.77,7.0,SSW,6.9,-,N/A,,Overcast,210,2013-10-18 02:52:00
11:52 PM,63.0,57.9,84,29.76,7.0,SW,10.4,18.4,N/A,,Overcast,220,2013-10-18 03:52:00